createdAt,value
2023-03-22T00:02:51.232Z,75.71
2023-03-22T00:07:54.181Z,76.27
2023-03-22T00:12:55.824Z,75.32
2023-03-22T00:17:58.956Z,74.24
2023-03-22T00:23:00.619Z,75.85
2023-03-22T00:28:02.074Z,76.73
2023-03-22T00:33:04.024Z,76.20
2023-03-22T00:38:14.036Z,75.46
2023-03-22T00:43:16.894Z,76.42
2023-03-22T00:48:18.551Z,75.44
2023-03-22T00:53:20.215Z,76.78
2023-03-22T00:58:21.932Z,77.62
2023-03-22T01:03:24.575Z,77.58
2023-03-22T01:08:33.612Z,75.99
2023-03-22T01:13:37.737Z,77.41
2023-03-22T01:18:39.387Z,78.55
2023-03-22T01:23:41.604Z,79.12
2023-03-22T01:28:43.085Z,78.33
2023-03-22T01:33:44.599Z,79.21
2023-03-22T01:38:46.180Z,79.28
2023-03-22T01:44:06.500Z,79.19
2023-03-22T01:49:14.598Z,79.35
2023-03-22T01:54:21.910Z,79.38
2023-03-22T01:59:24.354Z,79.37
2023-03-22T02:04:46.041Z,79.07
2023-03-22T02:09:47.908Z,78.86
2023-03-22T02:15:03.606Z,78.55
2023-03-22T02:21:02.404Z,77.56
2023-03-22T02:26:46.942Z,77.76
2023-03-22T02:32:18.091Z,77.37
2023-03-22T02:37:38.154Z,77.77
2023-03-22T02:42:58.261Z,77.89
2023-03-22T02:48:02.815Z,77.11
2023-03-22T02:53:13.359Z,77.48
2023-03-22T02:58:23.401Z,76.69
2023-03-22T03:03:29.281Z,77.60
2023-03-22T03:08:30.943Z,77.75
2023-03-22T03:13:35.182Z,77.32
2023-03-22T03:18:53.773Z,77.10
2023-03-22T03:24:14.457Z,76.77
2023-03-22T03:29:28.057Z,76.14
2023-03-22T03:34:49.582Z,76.51
2023-03-22T03:40:05.263Z,76.69
2023-03-22T03:45:08.395Z,76.31
2023-03-22T03:50:12.963Z,76.47
2023-03-22T03:55:15.386Z,76.53
2023-03-22T04:00:18.389Z,76.22
2023-03-22T04:05:42.826Z,75.53
2023-03-22T04:10:50.578Z,75.83
2023-03-22T04:15:57.412Z,76.07
2023-03-22T04:20:59.401Z,76.30
2023-03-22T04:26:05.863Z,76.57
2023-03-22T04:31:18.433Z,75.76
2023-03-22T04:36:31.111Z,75.24
2023-03-22T04:41:50.735Z,75.51
2023-03-22T04:46:52.251Z,76.17
2023-03-22T04:51:57.236Z,76.21
2023-03-22T04:57:09.229Z,75.72
2023-03-22T05:02:16.752Z,75.42
2023-03-22T05:07:18.434Z,76.28
2023-03-22T05:12:28.432Z,75.80
2023-03-22T05:17:58.948Z,75.93
2023-03-22T05:23:02.728Z,76.45
2023-03-22T05:28:06.358Z,76.70
2023-03-22T05:33:21.865Z,76.81
2023-03-22T05:38:26.852Z,76.28
2023-03-22T05:43:35.440Z,76.09
2023-03-22T05:48:39.504Z,76.12
2023-03-22T05:53:42.095Z,75.59
2023-03-22T05:58:50.534Z,76.21
2023-03-22T06:23:37.974Z,75.74
2023-03-22T06:28:40.524Z,75.99
2023-03-22T06:33:43.354Z,75.63
2023-03-22T06:39:00.861Z,75.42
2023-03-22T06:44:02.905Z,75.98
2023-03-22T06:49:35.830Z,75.75
2023-03-22T06:54:37.896Z,75.90
2023-03-22T06:59:41.756Z,75.89
2023-03-22T07:04:47.085Z,75.15
2023-03-22T07:09:57.026Z,75.66
2023-03-22T07:14:59.105Z,75.15
2023-03-22T07:20:11.548Z,74.71
2023-03-22T07:25:14.348Z,74.56
2023-03-22T07:30:16.116Z,74.13
2023-03-22T07:35:20.708Z,74.21
2023-03-22T07:40:23.567Z,73.54
2023-03-22T07:45:27.520Z,72.45
2023-03-22T07:50:56.367Z,72.23
2023-03-22T07:55:59.649Z,71.05
2023-03-22T08:01:10.769Z,70.11
2023-03-22T08:06:27.283Z,70.34
2023-03-22T08:11:28.863Z,69.25
2023-03-22T08:16:31.037Z,68.28
2023-03-22T08:21:35.271Z,69.29
2023-03-22T08:26:37.570Z,68.47
2023-03-22T08:31:47.712Z,67.71
2023-03-22T08:36:49.416Z,67.27
2023-03-22T08:41:50.961Z,67.39
2023-03-22T08:46:53.176Z,66.55
2023-03-22T08:51:54.970Z,66.66
2023-03-22T08:57:14.855Z,66.04
2023-03-22T09:02:27.643Z,64.85
2023-03-22T09:07:31.201Z,64.33
2023-03-22T09:12:40.890Z,65.02
2023-03-22T09:17:42.429Z,64.87
2023-03-22T09:22:44.000Z,66.23
2023-03-22T09:27:47.891Z,63.99
2023-03-22T09:32:50.246Z,65.96
2023-03-22T09:37:54.502Z,64.62
2023-03-22T09:43:00.634Z,63.34
2023-03-22T09:48:05.669Z,63.71
2023-03-22T09:53:13.900Z,60.99
2023-03-22T09:58:33.255Z,60.50
2023-03-22T10:04:13.640Z,59.65
2023-03-22T10:09:29.395Z,62.03
2023-03-22T10:14:36.944Z,60.00
2023-03-22T10:19:47.204Z,58.89
2023-03-22T10:24:50.798Z,59.67
2023-03-22T10:30:23.906Z,59.38
2023-03-22T10:35:25.739Z,57.98
2023-03-22T10:40:31.173Z,58.69
2023-03-22T10:45:34.537Z,64.15
2023-03-22T10:50:38.392Z,63.09
2023-03-22T10:55:42.209Z,56.88
2023-03-22T11:01:11.784Z,57.86
2023-03-22T11:06:18.681Z,58.19
2023-03-22T11:11:32.474Z,53.11
2023-03-22T11:16:55.198Z,53.90
2023-03-22T11:21:57.934Z,53.41
2023-03-22T11:27:21.425Z,53.95
2023-03-22T11:32:46.047Z,53.96
2023-03-22T11:37:50.044Z,53.08
2023-03-22T11:43:02.389Z,57.25
2023-03-22T11:48:17.661Z,53.73
2023-03-22T11:53:27.492Z,49.94
2023-03-22T11:58:42.556Z,54.13
2023-03-22T12:03:48.781Z,49.58
2023-03-22T12:09:01.822Z,53.45
2023-03-22T12:14:12.058Z,56.44
2023-03-22T12:19:29.898Z,51.34
2023-03-22T12:24:32.300Z,47.43
2023-03-22T12:29:35.395Z,48.78
2023-03-22T12:34:44.395Z,58.87
2023-03-22T12:39:56.044Z,50.86
2023-03-22T12:45:05.596Z,50.21
2023-03-22T12:50:14.446Z,49.38
2023-03-22T12:55:28.918Z,47.92
2023-03-22T13:00:45.717Z,48.42
2023-03-22T13:05:49.330Z,52.66
2023-03-22T13:11:03.553Z,49.36
2023-03-22T13:16:11.164Z,48.14
2023-03-22T13:21:22.683Z,49.10
2023-03-22T13:26:45.951Z,53.38
2023-03-22T13:31:54.601Z,47.60
2023-03-22T13:36:57.117Z,48.19
2023-03-22T13:42:13.576Z,55.79
2023-03-22T13:47:58.481Z,47.55
2023-03-22T13:53:06.511Z,48.12
2023-03-22T13:58:36.058Z,44.59
2023-03-22T14:03:42.052Z,50.90
2023-03-22T14:08:47.171Z,45.96
2023-03-22T14:14:07.847Z,46.20
2023-03-22T14:19:19.994Z,46.01
